createdAt,value
2017-10-06T00:00:43.901Z,0
2017-10-06T00:01:46.879Z,0
2017-10-06T00:02:49.683Z,0
2017-10-06T00:03:51.867Z,0
2017-10-06T00:04:57.287Z,0
2017-10-06T00:06:01.688Z,0
2017-10-06T00:07:03.791Z,0
2017-10-06T00:08:07.004Z,0
2017-10-06T00:09:10.788Z,0
2017-10-06T00:10:14.046Z,0
2017-10-06T00:11:16.609Z,0
2017-10-06T00:12:18.990Z,0
2017-10-06T00:13:22.794Z,0
2017-10-06T00:14:24.371Z,0
2017-10-06T00:15:25.985Z,0
2017-10-06T00:16:29.685Z,0
2017-10-06T00:17:33.258Z,0
2017-10-06T00:18:37.973Z,0
2017-10-06T00:19:41.740Z,0
2017-10-06T00:20:45.177Z,0
2017-10-06T00:21:47.308Z,0
2017-10-06T00:22:48.931Z,0
2017-10-06T00:23:50.538Z,0
2017-10-06T00:24:52.159Z,0
2017-10-06T00:25:53.771Z,0
2017-10-06T00:26:55.393Z,0
2017-10-06T00:27:57.003Z,0
2017-10-06T00:28:58.627Z,0
2017-10-06T00:30:00.236Z,0
2017-10-06T00:31:01.859Z,0
2017-10-06T00:32:03.473Z,0
2017-10-06T00:33:05.091Z,0
2017-10-06T00:34:06.703Z,0
2017-10-06T00:35:08.328Z,0
2017-10-06T00:36:09.940Z,0
2017-10-06T00:37:11.563Z,0
2017-10-06T00:38:13.184Z,0
2017-10-06T00:39:14.792Z,0
2017-10-06T00:40:16.413Z,0
2017-10-06T00:41:18.027Z,0
2017-10-06T00:42:19.652Z,0
2017-10-06T00:43:21.264Z,0
2017-10-06T00:44:22.887Z,0
2017-10-06T00:45:25.116Z,0
2017-10-06T00:46:26.074Z,0
2017-10-06T00:47:28.801Z,0
2017-10-06T00:48:30.410Z,0
2017-10-06T00:49:32.021Z,0
2017-10-06T00:50:33.645Z,0
2017-10-06T00:51:35.256Z,0
2017-10-06T00:52:36.869Z,0
2017-10-06T00:53:38.482Z,0
2017-10-06T00:54:40.115Z,0
2017-10-06T00:55:41.719Z,0
2017-10-06T00:56:43.329Z,0
2017-10-06T00:57:44.956Z,0
2017-10-06T00:58:46.577Z,0
2017-10-06T00:59:48.186Z,0
2017-10-06T01:00:49.798Z,0
2017-10-06T01:01:51.421Z,0
2017-10-06T01:02:53.031Z,0
2017-10-06T01:03:54.646Z,0
2017-10-06T01:04:56.260Z,0
2017-10-06T01:05:57.880Z,0
2017-10-06T01:06:59.496Z,0
2017-10-06T01:08:01.118Z,0
2017-10-06T01:09:02.742Z,0
2017-10-06T01:10:04.380Z,0
2017-10-06T01:11:06.027Z,0
2017-10-06T01:12:07.642Z,0
2017-10-06T01:13:09.274Z,0
2017-10-06T01:14:10.907Z,0
2017-10-06T01:15:12.541Z,0
2017-10-06T01:16:14.158Z,0
2017-10-06T01:17:15.774Z,0
2017-10-06T01:18:17.419Z,0
2017-10-06T01:19:19.053Z,0
2017-10-06T01:20:20.680Z,0
2017-10-06T01:21:22.298Z,0
2017-10-06T01:22:23.938Z,0
2017-10-06T01:23:25.579Z,0
2017-10-06T01:24:27.195Z,0
2017-10-06T01:25:28.825Z,0
2017-10-06T01:26:30.460Z,0
2017-10-06T01:27:32.075Z,0
2017-10-06T01:28:33.715Z,0
2017-10-06T01:29:35.333Z,0
2017-10-06T01:30:36.972Z,0
2017-10-06T01:31:38.599Z,0
2017-10-06T01:32:40.234Z,0
2017-10-06T01:33:41.863Z,0
2017-10-06T01:34:43.495Z,0
2017-10-06T01:35:45.119Z,0
2017-10-06T01:36:46.753Z,0
2017-10-06T01:37:48.377Z,0
2017-10-06T01:38:50.011Z,0
2017-10-06T01:39:51.628Z,0
2017-10-06T01:40:53.273Z,0
2017-10-06T01:41:54.886Z,0
2017-10-06T01:42:56.523Z,0
2017-10-06T01:43:58.163Z,0
2017-10-06T01:44:59.781Z,0
2017-10-06T01:46:01.423Z,0
2017-10-06T01:47:03.043Z,0
2017-10-06T01:48:04.673Z,0
2017-10-06T01:49:06.300Z,0
2017-10-06T01:50:07.918Z,0
2017-10-06T01:51:09.558Z,0
2017-10-06T01:52:11.178Z,0
2017-10-06T01:53:12.898Z,0
2017-10-06T01:54:14.489Z,0
2017-10-06T01:55:16.127Z,0
2017-10-06T01:56:17.751Z,0
2017-10-06T01:57:19.383Z,0
2017-10-06T01:58:21.006Z,0
2017-10-06T01:59:22.638Z,0
2017-10-06T02:00:24.267Z,0
2017-10-06T02:01:25.894Z,0
2017-10-06T02:02:27.514Z,0
2017-10-06T02:03:29.158Z,0
2017-10-06T02:04:30.795Z,0
2017-10-06T02:05:32.412Z,0
2017-10-06T02:06:34.051Z,0
2017-10-06T02:07:35.669Z,0
2017-10-06T02:08:37.312Z,0
2017-10-06T02:09:38.931Z,0
2017-10-06T02:10:40.569Z,0
2017-10-06T02:11:42.185Z,0
2017-10-06T02:12:43.817Z,0
2017-10-06T02:13:45.444Z,0
2017-10-06T02:14:47.077Z,0
2017-10-06T02:15:48.702Z,0
2017-10-06T02:16:50.344Z,0
2017-10-06T02:17:51.960Z,0
2017-10-06T02:18:53.589Z,0
2017-10-06T02:19:55.220Z,0
2017-10-06T02:20:56.852Z,0
2017-10-06T02:21:58.501Z,0
2017-10-06T02:23:00.133Z,0
2017-10-06T02:24:01.759Z,0
2017-10-06T02:25:03.378Z,0
2017-10-06T02:26:05.017Z,0
2017-10-06T02:27:06.643Z,0
2017-10-06T02:28:08.268Z,0
2017-10-06T02:29:09.909Z,0
2017-10-06T02:30:11.542Z,0
2017-10-06T02:31:13.186Z,0
2017-10-06T02:32:14.801Z,0
2017-10-06T02:33:16.418Z,0
2017-10-06T02:34:18.056Z,0
2017-10-06T02:35:19.672Z,0
2017-10-06T02:36:21.312Z,0
2017-10-06T02:37:22.940Z,0
2017-10-06T02:38:24.572Z,0
2017-10-06T02:39:26.207Z,0
2017-10-06T02:40:27.824Z,0
2017-10-06T02:41:29.465Z,0
2017-10-06T02:42:31.088Z,0
2017-10-06T02:43:32.715Z,0
2017-10-06T02:44:34.346Z,0
2017-10-06T02:45:35.974Z,0
2017-10-06T02:46:37.600Z,0
2017-10-06T02:47:39.221Z,0
2017-10-06T02:48:40.855Z,0
2017-10-06T02:49:42.472Z,0
2017-10-06T02:50:44.127Z,0
2017-10-06T02:51:45.752Z,0
2017-10-06T02:52:47.376Z,0
2017-10-06T02:53:49.004Z,0
2017-10-06T02:54:50.637Z,0
2017-10-06T02:55:52.275Z,0
2017-10-06T02:56:53.894Z,0
2017-10-06T02:57:55.534Z,0
2017-10-06T02:58:57.155Z,0
2017-10-06T02:59:58.785Z,0
2017-10-06T03:01:00.409Z,0
2017-10-06T03:02:02.036Z,0
2017-10-06T03:03:03.671Z,0
2017-10-06T03:04:05.289Z,0
2017-10-06T03:05:06.926Z,0
2017-10-06T03:06:08.567Z,0
2017-10-06T03:07:10.187Z,0
2017-10-06T03:08:11.812Z,0
2017-10-06T03:09:13.441Z,0
2017-10-06T03:10:15.070Z,0
2017-10-06T03:11:16.694Z,0
2017-10-06T03:12:18.313Z,0
2017-10-06T03:13:19.955Z,0
2017-10-06T03:14:21.588Z,0
2017-10-06T03:15:23.208Z,0
2017-10-06T03:16:24.839Z,0
2017-10-06T03:17:26.476Z,0
2017-10-06T03:18:28.116Z,0
2017-10-06T03:19:29.745Z,0
2017-10-06T03:20:31.385Z,0
2017-10-06T03:21:33.007Z,0
2017-10-06T03:22:34.638Z,0
2017-10-06T03:23:36.261Z,0
2017-10-06T03:24:37.898Z,0
2017-10-06T03:25:39.521Z,0
2017-10-06T03:26:41.164Z,0
2017-10-06T03:27:42.782Z,0
2017-10-06T03:28:44.427Z,0
2017-10-06T03:29:46.036Z,0
2017-10-06T03:30:47.671Z,0
2017-10-06T03:31:49.300Z,0
2017-10-06T03:32:50.941Z,0
2017-10-06T03:33:52.575Z,0
2017-10-06T03:34:54.189Z,0
2017-10-06T03:35:55.840Z,0
2017-10-06T03:36:57.457Z,0
2017-10-06T03:37:59.082Z,0
2017-10-06T03:39:00.711Z,0
2017-10-06T03:40:02.356Z,0
2017-10-06T03:41:03.982Z,0
2017-10-06T03:42:05.615Z,0
2017-10-06T03:43:07.231Z,0
2017-10-06T03:44:09.019Z,0
2017-10-06T03:45:10.629Z,0
2017-10-06T03:46:12.267Z,0
2017-10-06T03:47:13.901Z,0
2017-10-06T03:48:15.616Z,0
2017-10-06T03:49:17.240Z,0
2017-10-06T03:50:18.866Z,0
2017-10-06T03:51:20.492Z,0
2017-10-06T03:52:22.120Z,0
2017-10-06T03:53:23.747Z,0
2017-10-06T03:54:25.364Z,0
2017-10-06T03:55:26.994Z,0
2017-10-06T03:56:28.619Z,0
2017-10-06T03:57:30.254Z,0
2017-10-06T03:58:31.894Z,0
2017-10-06T03:59:33.533Z,0
2017-10-06T04:00:35.151Z,0
2017-10-06T04:01:36.790Z,0
2017-10-06T04:02:38.422Z,0
2017-10-06T04:03:40.062Z,0
2017-10-06T04:04:41.683Z,0
2017-10-06T04:05:43.323Z,0
2017-10-06T04:06:44.938Z,0
2017-10-06T04:07:46.571Z,0
2017-10-06T04:08:48.212Z,0
2017-10-06T04:09:49.829Z,0
2017-10-06T04:10:51.456Z,0
2017-10-06T04:11:53.097Z,0
2017-10-06T04:12:54.710Z,0
2017-10-06T04:13:56.358Z,0
2017-10-06T04:14:57.974Z,0
2017-10-06T04:15:59.605Z,0
2017-10-06T04:17:01.231Z,0
2017-10-06T04:18:02.866Z,0
2017-10-06T04:19:04.486Z,0
2017-10-06T04:20:06.117Z,0
2017-10-06T04:21:07.743Z,0
2017-10-06T04:22:09.363Z,0
2017-10-06T04:23:11.000Z,0
2017-10-06T04:24:12.637Z,0
2017-10-06T04:25:14.267Z,0
2017-10-06T04:26:15.909Z,0
2017-10-06T04:27:17.539Z,0
2017-10-06T04:28:19.150Z,0
2017-10-06T04:29:20.792Z,0
2017-10-06T04:30:22.408Z,0
2017-10-06T04:31:24.050Z,0
2017-10-06T04:32:25.677Z,0
2017-10-06T04:33:27.309Z,0
2017-10-06T04:34:28.934Z,0
2017-10-06T04:35:30.568Z,0
2017-10-06T04:36:32.194Z,0
2017-10-06T04:37:33.808Z,0
2017-10-06T04:38:35.449Z,0
2017-10-06T04:39:37.066Z,0
2017-10-06T04:40:38.700Z,0
2017-10-06T04:41:40.326Z,0
2017-10-06T04:42:41.948Z,0
2017-10-06T04:43:43.572Z,0
2017-10-06T04:44:45.213Z,0
2017-10-06T04:45:46.830Z,0
2017-10-06T04:46:48.455Z,0
2017-10-06T04:47:50.087Z,0
2017-10-06T04:48:51.716Z,0
2017-10-06T04:49:53.327Z,0
2017-10-06T04:50:54.951Z,0
2017-10-06T04:51:56.588Z,0
2017-10-06T04:52:58.207Z,0
2017-10-06T04:53:59.834Z,0
2017-10-06T04:55:01.467Z,0
2017-10-06T04:56:03.079Z,0
2017-10-06T04:57:04.707Z,0
2017-10-06T04:58:06.336Z,0
2017-10-06T04:59:07.959Z,0
2017-10-06T05:00:09.582Z,0
2017-10-06T05:01:11.200Z,0
2017-10-06T05:02:12.840Z,0
2017-10-06T05:03:14.467Z,0
2017-10-06T05:04:16.090Z,0
2017-10-06T05:05:17.719Z,0
2017-10-06T05:06:19.352Z,0
2017-10-06T05:07:20.978Z,0
2017-10-06T05:08:22.608Z,0
2017-10-06T05:09:24.468Z,0
2017-10-06T05:10:29.677Z,0
2017-10-06T05:11:31.257Z,0
2017-10-06T05:12:34.180Z,0
2017-10-06T05:13:43.216Z,0
2017-10-06T05:14:44.825Z,0
2017-10-06T05:15:46.449Z,0
2017-10-06T05:16:48.091Z,0
2017-10-06T05:17:49.727Z,0
2017-10-06T05:18:51.342Z,0
2017-10-06T05:19:52.973Z,0
2017-10-06T05:20:54.603Z,0
2017-10-06T05:21:56.232Z,0
2017-10-06T05:22:57.858Z,0
2017-10-06T05:23:59.491Z,0
2017-10-06T05:25:01.116Z,0
2017-10-06T05:26:02.737Z,0
2017-10-06T05:27:04.376Z,0
2017-10-06T05:28:05.995Z,0
2017-10-06T05:29:07.636Z,0
2017-10-06T05:30:09.266Z,5
2017-10-06T05:31:10.897Z,5
2017-10-06T05:32:12.518Z,5
2017-10-06T05:33:14.150Z,5
2017-10-06T05:34:15.767Z,5
2017-10-06T05:35:17.408Z,0
2017-10-06T05:36:19.028Z,5
2017-10-06T05:37:20.672Z,5
2017-10-06T05:38:22.301Z,5
2017-10-06T05:39:23.935Z,5
2017-10-06T05:40:25.575Z,11
2017-10-06T05:41:27.198Z,11
2017-10-06T05:42:28.841Z,11
2017-10-06T05:43:30.461Z,11
2017-10-06T05:44:32.107Z,11
2017-10-06T05:45:33.741Z,11
2017-10-06T05:46:35.375Z,11
2017-10-06T05:47:37.001Z,16
2017-10-06T05:48:38.635Z,16
2017-10-06T05:49:40.263Z,22
2017-10-06T05:50:41.907Z,22
2017-10-06T05:51:43.527Z,22
2017-10-06T05:52:45.172Z,22
2017-10-06T05:53:46.791Z,28
2017-10-06T05:54:48.424Z,28
2017-10-06T05:55:50.051Z,33
2017-10-06T05:56:51.677Z,39
2017-10-06T05:57:53.321Z,39
2017-10-06T05:58:54.956Z,45
2017-10-06T05:59:56.586Z,45
2017-10-06T06:00:58.210Z,45
2017-10-06T06:01:59.856Z,50
2017-10-06T06:03:01.498Z,45
2017-10-06T06:04:03.119Z,45
2017-10-06T06:05:04.752Z,45
2017-10-06T06:06:06.389Z,56
2017-10-06T06:07:08.023Z,67
2017-10-06T06:08:09.650Z,67
2017-10-06T06:09:11.273Z,67
2017-10-06T06:10:12.917Z,73
2017-10-06T06:11:14.561Z,73
2017-10-06T06:12:16.182Z,73
2017-10-06T06:13:17.823Z,73
2017-10-06T06:14:19.466Z,84
2017-10-06T06:15:21.104Z,84
2017-10-06T06:16:22.726Z,84
2017-10-06T06:17:24.358Z,90
2017-10-06T06:18:26.003Z,90
2017-10-06T06:19:27.639Z,95
2017-10-06T06:20:29.269Z,106
2017-10-06T06:21:30.899Z,106
2017-10-06T06:22:32.546Z,112
2017-10-06T06:23:34.177Z,118
2017-10-06T06:24:35.814Z,135
2017-10-06T06:25:37.446Z,185
2017-10-06T06:26:39.085Z,230
2017-10-06T06:27:40.711Z,219
2017-10-06T06:28:42.356Z,202
2017-10-06T06:29:43.979Z,196
2017-10-06T06:30:45.624Z,202
2017-10-06T06:31:47.246Z,213
2017-10-06T06:32:48.892Z,213
2017-10-06T06:33:50.520Z,208
2017-10-06T06:34:52.167Z,208
2017-10-06T06:35:53.801Z,191
2017-10-06T06:36:55.438Z,185
2017-10-06T06:37:57.072Z,185
2017-10-06T06:38:58.707Z,174
2017-10-06T06:40:00.341Z,168
2017-10-06T06:41:01.976Z,163
2017-10-06T06:42:03.615Z,151
2017-10-06T06:43:05.251Z,129
2017-10-06T06:44:06.894Z,129
2017-10-06T06:45:08.518Z,129
2017-10-06T06:46:10.162Z,129
2017-10-06T06:47:11.788Z,123
2017-10-06T06:48:13.435Z,106
2017-10-06T06:49:15.062Z,101
2017-10-06T06:50:16.709Z,112
2017-10-06T06:51:18.332Z,146
2017-10-06T06:52:19.959Z,157
2017-10-06T06:53:21.569Z,151
2017-10-06T06:54:23.202Z,151
2017-10-06T06:55:24.813Z,135
2017-10-06T06:56:26.438Z,123
2017-10-06T06:57:28.052Z,140
2017-10-06T06:58:29.665Z,168
2017-10-06T06:59:31.285Z,185
2017-10-06T07:00:32.903Z,135
2017-10-06T07:01:34.515Z,101
2017-10-06T07:02:36.132Z,106
2017-10-06T07:03:37.755Z,146
2017-10-06T07:04:39.377Z,180
2017-10-06T07:05:40.983Z,208
2017-10-06T07:06:42.598Z,208
2017-10-06T07:07:44.218Z,219
2017-10-06T07:08:45.840Z,196
2017-10-06T07:09:47.453Z,191
2017-10-06T07:10:49.068Z,196
2017-10-06T07:11:50.689Z,208
2017-10-06T07:12:52.304Z,241
2017-10-06T07:13:53.921Z,309
2017-10-06T07:14:55.535Z,399
2017-10-06T07:15:57.155Z,483
2017-10-06T07:16:58.766Z,573
2017-10-06T07:18:00.392Z,1445
2017-10-06T07:19:02.014Z,1890
2017-10-06T07:20:03.641Z,748
2017-10-06T07:21:05.251Z,613
2017-10-06T07:22:06.875Z,916
2017-10-06T07:23:08.494Z,736
2017-10-06T07:24:10.110Z,714
2017-10-06T07:25:11.730Z,691
2017-10-06T07:26:13.348Z,1366
2017-10-06T07:27:14.965Z,1383
2017-10-06T07:28:16.584Z,1558
2017-10-06T07:29:18.202Z,680
2017-10-06T07:30:19.815Z,545
2017-10-06T07:31:21.435Z,315
2017-10-06T07:32:23.059Z,202
2017-10-06T07:33:24.684Z,168
2017-10-06T07:34:26.294Z,185
2017-10-06T07:35:27.911Z,236
2017-10-06T07:36:30.161Z,292
2017-10-06T07:37:31.110Z,303
2017-10-06T07:38:32.728Z,371
2017-10-06T07:39:34.352Z,686
2017-10-06T07:40:35.969Z,995
2017-10-06T07:41:37.593Z,1158
2017-10-06T07:42:39.215Z,635
2017-10-06T07:43:40.833Z,658
2017-10-06T07:44:42.444Z,669
2017-10-06T07:45:44.074Z,1113
2017-10-06T07:46:45.695Z,2199
2017-10-06T07:47:47.316Z,1890
2017-10-06T07:48:48.935Z,376
2017-10-06T07:49:50.555Z,225
2017-10-06T07:50:52.170Z,191
2017-10-06T07:51:53.787Z,230
2017-10-06T07:52:55.413Z,483
2017-10-06T07:53:57.036Z,624
2017-10-06T07:54:58.662Z,832
2017-10-06T07:56:00.278Z,506
2017-10-06T07:57:01.894Z,275
2017-10-06T07:58:03.512Z,225
2017-10-06T07:59:05.136Z,191
2017-10-06T08:00:06.752Z,146
2017-10-06T08:01:08.368Z,180
2017-10-06T08:02:09.990Z,281
2017-10-06T08:03:11.605Z,545
2017-10-06T08:04:13.230Z,675
2017-10-06T08:05:14.845Z,714
2017-10-06T08:06:16.471Z,765
2017-10-06T08:07:18.087Z,911
2017-10-06T08:08:19.711Z,911
2017-10-06T08:09:21.326Z,928
2017-10-06T08:10:22.953Z,821
2017-10-06T08:11:24.573Z,618
2017-10-06T08:12:26.188Z,590
2017-10-06T08:13:27.808Z,337
2017-10-06T08:14:29.421Z,309
2017-10-06T08:15:31.047Z,326
2017-10-06T08:16:32.668Z,320
2017-10-06T08:17:34.295Z,416
2017-10-06T08:18:35.913Z,646
2017-10-06T08:19:37.527Z,866
2017-10-06T08:20:39.153Z,1552
2017-10-06T08:21:40.767Z,360
2017-10-06T08:22:42.389Z,438
2017-10-06T08:23:44.007Z,393
2017-10-06T08:24:45.629Z,421
2017-10-06T08:25:47.244Z,500
2017-10-06T08:26:48.857Z,540
2017-10-06T08:27:50.482Z,354
2017-10-06T08:28:52.098Z,275
2017-10-06T08:29:53.716Z,230
2017-10-06T08:30:55.337Z,376
2017-10-06T08:31:56.952Z,438
2017-10-06T08:32:58.567Z,393
2017-10-06T08:34:00.192Z,320
2017-10-06T08:35:01.805Z,225
2017-10-06T08:36:03.427Z,258
2017-10-06T08:37:05.043Z,219
2017-10-06T08:38:06.672Z,180
2017-10-06T08:39:08.283Z,213
2017-10-06T08:40:09.905Z,270
2017-10-06T08:41:11.520Z,337
2017-10-06T08:42:13.142Z,208
2017-10-06T08:43:14.767Z,213
2017-10-06T08:44:16.379Z,174
2017-10-06T08:45:17.996Z,174
2017-10-06T08:46:19.611Z,123
2017-10-06T08:47:21.232Z,95
2017-10-06T08:48:22.848Z,129
2017-10-06T08:49:24.459Z,123
2017-10-06T08:50:26.086Z,185
2017-10-06T08:51:27.701Z,292
2017-10-06T08:52:29.326Z,253
2017-10-06T08:53:30.945Z,253
2017-10-06T08:54:32.556Z,326
2017-10-06T08:55:34.171Z,309
2017-10-06T08:56:35.795Z,315
2017-10-06T08:57:37.412Z,399
2017-10-06T08:58:39.029Z,303
2017-10-06T08:59:40.652Z,365
2017-10-06T09:00:42.272Z,382
2017-10-06T09:01:43.890Z,410
2017-10-06T09:02:45.504Z,500
2017-10-06T09:03:47.121Z,517
2017-10-06T09:04:48.745Z,523
2017-10-06T09:05:50.361Z,607
2017-10-06T09:06:51.977Z,630
2017-10-06T09:07:53.598Z,641
2017-10-06T09:08:55.214Z,607
2017-10-06T09:09:56.827Z,579
2017-10-06T09:10:58.451Z,528
2017-10-06T09:12:00.073Z,416
2017-10-06T09:13:01.693Z,388
2017-10-06T09:14:03.308Z,292
2017-10-06T09:15:04.928Z,219
2017-10-06T09:16:06.551Z,219
2017-10-06T09:17:08.170Z,213
2017-10-06T09:18:09.783Z,129
2017-10-06T09:19:11.405Z,95
2017-10-06T09:20:13.022Z,157
2017-10-06T09:21:14.649Z,168
2017-10-06T09:22:16.263Z,174
2017-10-06T09:23:17.884Z,225
2017-10-06T09:24:19.509Z,219
2017-10-06T09:25:21.120Z,247
2017-10-06T09:26:22.745Z,292
2017-10-06T09:27:24.360Z,326
2017-10-06T09:28:25.979Z,298
2017-10-06T09:29:27.594Z,292
2017-10-06T09:30:29.214Z,393
2017-10-06T09:31:30.828Z,506
2017-10-06T09:32:32.450Z,618
2017-10-06T09:33:34.063Z,624
2017-10-06T09:34:35.688Z,551
2017-10-06T09:35:37.305Z,360
2017-10-06T09:36:38.928Z,315
2017-10-06T09:37:40.541Z,399
2017-10-06T09:38:42.161Z,523
2017-10-06T09:39:43.778Z,511
2017-10-06T09:40:45.399Z,500
2017-10-06T09:41:47.013Z,444
2017-10-06T09:42:48.631Z,495
2017-10-06T09:43:50.255Z,495
2017-10-06T09:44:51.878Z,506
2017-10-06T09:45:53.491Z,523
2017-10-06T09:46:55.111Z,461
2017-10-06T09:47:56.729Z,444
2017-10-06T09:48:58.353Z,382
2017-10-06T09:49:59.973Z,315
2017-10-06T09:51:01.583Z,275
2017-10-06T09:52:03.210Z,286
2017-10-06T09:53:04.826Z,247
2017-10-06T09:54:06.441Z,241
2017-10-06T09:55:08.055Z,270
2017-10-06T09:56:09.685Z,303
2017-10-06T09:57:11.310Z,230
2017-10-06T09:58:12.922Z,230
2017-10-06T09:59:14.539Z,241
2017-10-06T10:00:16.159Z,225
2017-10-06T10:01:17.778Z,219
2017-10-06T10:02:19.395Z,230
2017-10-06T10:03:21.012Z,275
2017-10-06T10:04:22.641Z,326
2017-10-06T10:05:24.258Z,360
2017-10-06T10:06:25.871Z,433
2017-10-06T10:07:27.488Z,461
2017-10-06T10:08:29.119Z,466
2017-10-06T10:09:30.738Z,568
2017-10-06T10:10:32.352Z,585
2017-10-06T10:11:33.971Z,495
2017-10-06T10:12:35.590Z,511
2017-10-06T10:13:37.201Z,455
2017-10-06T10:14:38.826Z,545
2017-10-06T10:15:40.441Z,511
2017-10-06T10:16:43.982Z,478
2017-10-06T10:17:45.580Z,354
2017-10-06T10:18:47.207Z,298
2017-10-06T10:19:48.818Z,275
2017-10-06T10:20:50.437Z,298
2017-10-06T10:21:52.053Z,303
2017-10-06T10:22:53.675Z,230
2017-10-06T10:23:55.288Z,213
2017-10-06T10:24:56.911Z,275
2017-10-06T10:25:58.524Z,303
2017-10-06T10:27:00.146Z,309
2017-10-06T10:28:01.757Z,343
2017-10-06T10:29:03.380Z,354
2017-10-06T10:30:04.999Z,495
2017-10-06T10:31:06.618Z,568
2017-10-06T10:32:08.233Z,376
2017-10-06T10:33:09.856Z,405
2017-10-06T10:34:11.467Z,455
2017-10-06T10:35:13.086Z,371
2017-10-06T10:36:14.710Z,337
2017-10-06T10:37:16.322Z,275
2017-10-06T10:38:17.944Z,303
2017-10-06T10:39:19.558Z,303
2017-10-06T10:40:21.184Z,286
2017-10-06T10:41:22.796Z,270
2017-10-06T10:42:24.427Z,253
2017-10-06T10:43:26.041Z,247
2017-10-06T10:44:27.664Z,247
2017-10-06T10:45:29.277Z,247
2017-10-06T10:46:30.897Z,241
2017-10-06T10:47:32.515Z,241
2017-10-06T10:48:34.136Z,258
2017-10-06T10:49:35.749Z,286
2017-10-06T10:50:37.372Z,309
2017-10-06T10:51:38.988Z,399
2017-10-06T10:52:40.602Z,478
2017-10-06T10:53:42.223Z,534
2017-10-06T10:54:43.846Z,556
2017-10-06T10:55:45.457Z,641
2017-10-06T10:56:47.073Z,725
2017-10-06T10:57:48.697Z,826
2017-10-06T10:58:50.318Z,967
2017-10-06T10:59:51.933Z,1035
2017-10-06T11:00:53.553Z,1119
2017-10-06T11:01:55.180Z,1018
2017-10-06T11:02:56.797Z,866
2017-10-06T11:03:58.417Z,776
2017-10-06T11:05:00.039Z,900
2017-10-06T11:06:01.654Z,871
2017-10-06T11:07:03.274Z,933
2017-10-06T11:08:04.901Z,1181
2017-10-06T11:09:06.518Z,1035
2017-10-06T11:10:08.142Z,866
2017-10-06T11:11:09.763Z,933
2017-10-06T11:12:11.378Z,798
2017-10-06T11:13:12.996Z,742
2017-10-06T11:14:14.621Z,703
2017-10-06T11:15:16.246Z,725
2017-10-06T11:16:17.864Z,911
2017-10-06T11:17:19.480Z,1586
2017-10-06T11:18:21.105Z,1108
2017-10-06T11:19:22.725Z,1006
2017-10-06T11:20:24.342Z,928
2017-10-06T11:21:25.963Z,1350
2017-10-06T11:22:27.593Z,1226
2017-10-06T11:23:29.220Z,1788
2017-10-06T11:24:30.838Z,1023
2017-10-06T11:25:32.463Z,1524
2017-10-06T11:26:34.079Z,905
2017-10-06T11:27:35.701Z,1929
2017-10-06T11:28:37.326Z,3206
2017-10-06T11:29:38.945Z,2587
2017-10-06T11:30:40.574Z,3324
2017-10-06T11:31:42.190Z,3386
2017-10-06T11:32:43.818Z,1237
2017-10-06T11:33:45.435Z,759
2017-10-06T11:34:47.060Z,585
2017-10-06T11:35:48.689Z,320
2017-10-06T11:36:50.305Z,286
2017-10-06T11:37:51.932Z,281
2017-10-06T11:38:53.547Z,399
2017-10-06T11:39:55.161Z,607
2017-10-06T11:40:56.786Z,466
2017-10-06T11:41:58.410Z,399
2017-10-06T11:43:00.027Z,517
2017-10-06T11:44:01.653Z,793
2017-10-06T11:45:03.273Z,1350
2017-10-06T11:46:04.899Z,1591
2017-10-06T11:47:06.517Z,2593
2017-10-06T11:48:08.144Z,933
2017-10-06T11:49:09.760Z,691
2017-10-06T11:50:11.387Z,596
2017-10-06T11:51:13.005Z,528
2017-10-06T11:52:14.621Z,511
2017-10-06T11:53:16.247Z,613
2017-10-06T11:54:17.864Z,1186
2017-10-06T11:55:19.491Z,1096
2017-10-06T11:56:21.117Z,1119
2017-10-06T11:57:22.737Z,731
2017-10-06T11:58:24.361Z,781
2017-10-06T11:59:25.989Z,742
2017-10-06T12:00:27.601Z,556
2017-10-06T12:01:29.222Z,303
2017-10-06T12:02:30.843Z,1215
2017-10-06T12:03:32.466Z,393
2017-10-06T12:04:34.083Z,601
2017-10-06T12:05:35.709Z,641
2017-10-06T12:06:37.328Z,939
2017-10-06T12:07:38.957Z,1226
2017-10-06T12:08:40.583Z,1316
2017-10-06T12:09:42.202Z,3076
2017-10-06T12:10:43.831Z,1006
2017-10-06T12:11:45.449Z,995
2017-10-06T12:12:47.068Z,680
2017-10-06T12:13:48.698Z,765
2017-10-06T12:14:50.312Z,562
2017-10-06T12:15:51.941Z,1665
2017-10-06T12:16:53.564Z,1951
2017-10-06T12:17:55.184Z,2160
2017-10-06T12:18:56.805Z,2801
2017-10-06T12:19:58.434Z,1130
2017-10-06T12:21:00.062Z,720
2017-10-06T12:22:01.680Z,641
2017-10-06T12:23:03.299Z,652
2017-10-06T12:24:04.921Z,483
2017-10-06T12:25:06.537Z,281
2017-10-06T12:26:08.166Z,219
2017-10-06T12:27:09.783Z,219
2017-10-06T12:28:11.414Z,376
2017-10-06T12:29:13.035Z,607
2017-10-06T12:30:14.651Z,793
2017-10-06T12:31:16.277Z,1254
2017-10-06T12:32:17.897Z,1333
2017-10-06T12:33:19.519Z,1215
2017-10-06T12:34:21.145Z,1243
2017-10-06T12:35:22.775Z,1085
2017-10-06T12:36:24.392Z,765
2017-10-06T12:37:26.007Z,545
2017-10-06T12:38:27.634Z,511
2017-10-06T12:39:29.257Z,348
2017-10-06T12:40:30.876Z,253
2017-10-06T12:41:32.506Z,202
2017-10-06T12:42:34.123Z,146
2017-10-06T12:43:35.751Z,101
2017-10-06T12:44:37.367Z,95
2017-10-06T12:45:38.985Z,67
2017-10-06T12:46:40.602Z,61
2017-10-06T12:47:42.223Z,45
2017-10-06T12:48:43.842Z,28
2017-10-06T12:49:45.459Z,16
2017-10-06T12:50:47.085Z,22
2017-10-06T12:51:48.697Z,16
2017-10-06T12:52:50.321Z,56
2017-10-06T12:53:51.942Z,101
2017-10-06T12:54:53.565Z,140
2017-10-06T12:55:55.180Z,129
2017-10-06T12:56:56.806Z,118
2017-10-06T12:57:58.418Z,101
2017-10-06T12:59:00.044Z,95
2017-10-06T13:00:01.659Z,90
2017-10-06T13:01:03.280Z,61
2017-10-06T13:02:04.896Z,56
2017-10-06T13:03:06.520Z,90
2017-10-06T13:04:08.137Z,90
2017-10-06T13:05:09.757Z,95
2017-10-06T13:06:11.371Z,90
2017-10-06T13:07:12.995Z,118
2017-10-06T13:08:14.618Z,208
2017-10-06T13:09:16.233Z,258
2017-10-06T13:10:17.851Z,466
2017-10-06T13:11:19.477Z,669
2017-10-06T13:12:21.093Z,613
2017-10-06T13:13:22.708Z,652
2017-10-06T13:14:24.335Z,703
2017-10-06T13:15:25.948Z,658
2017-10-06T13:16:27.568Z,708
2017-10-06T13:17:29.193Z,793
2017-10-06T13:18:30.813Z,838
2017-10-06T13:19:32.429Z,804
2017-10-06T13:20:34.044Z,781
2017-10-06T13:21:35.669Z,691
2017-10-06T13:22:37.284Z,573
2017-10-06T13:23:38.908Z,601
2017-10-06T13:24:40.531Z,675
2017-10-06T13:25:42.147Z,596
2017-10-06T13:26:43.762Z,545
2017-10-06T13:27:45.384Z,455
2017-10-06T13:28:47.008Z,354
2017-10-06T13:29:48.623Z,371
2017-10-06T13:30:50.239Z,337
2017-10-06T13:31:51.867Z,292
2017-10-06T13:32:53.496Z,303
2017-10-06T13:33:55.107Z,337
2017-10-06T13:34:56.726Z,320
2017-10-06T13:35:58.348Z,348
2017-10-06T13:36:59.968Z,360
2017-10-06T13:38:01.583Z,354
2017-10-06T13:39:03.209Z,365
2017-10-06T13:40:04.826Z,399
2017-10-06T13:41:06.447Z,371
2017-10-06T13:42:08.063Z,343
2017-10-06T13:43:09.683Z,354
2017-10-06T13:44:11.301Z,320
2017-10-06T13:45:12.922Z,320
2017-10-06T13:46:14.537Z,286
2017-10-06T13:47:16.159Z,275
2017-10-06T13:48:17.778Z,275
2017-10-06T13:49:19.394Z,275
2017-10-06T13:50:21.014Z,275
2017-10-06T13:51:22.632Z,281
2017-10-06T13:52:24.247Z,281
2017-10-06T13:53:25.866Z,286
2017-10-06T13:54:27.489Z,315
2017-10-06T13:55:29.110Z,309
2017-10-06T13:56:30.735Z,298
2017-10-06T13:57:32.355Z,337
2017-10-06T13:58:33.967Z,399
2017-10-06T13:59:35.594Z,371
2017-10-06T14:00:37.212Z,388
2017-10-06T14:01:38.838Z,517
2017-10-06T14:02:40.456Z,416
2017-10-06T14:03:42.072Z,421
2017-10-06T14:04:43.689Z,601
2017-10-06T14:05:45.310Z,461
2017-10-06T14:06:46.926Z,371
2017-10-06T14:07:48.544Z,337
2017-10-06T14:08:50.172Z,315
2017-10-06T14:09:51.791Z,337
2017-10-06T14:10:53.405Z,405
2017-10-06T14:11:55.023Z,455
2017-10-06T14:12:56.643Z,517
2017-10-06T14:13:58.261Z,511
2017-10-06T14:14:59.883Z,461
2017-10-06T14:16:01.497Z,444
2017-10-06T14:17:03.129Z,421
2017-10-06T14:18:04.741Z,337
2017-10-06T14:19:06.360Z,337
2017-10-06T14:20:07.986Z,303
2017-10-06T14:21:09.599Z,303
2017-10-06T14:22:11.232Z,298
2017-10-06T14:23:12.847Z,270
2017-10-06T14:24:14.465Z,264
2017-10-06T14:25:16.089Z,264
2017-10-06T14:26:17.698Z,270
2017-10-06T14:27:19.322Z,270
2017-10-06T14:28:20.942Z,236
2017-10-06T14:29:22.556Z,258
2017-10-06T14:30:24.181Z,292
2017-10-06T14:31:25.800Z,405
2017-10-06T14:32:27.415Z,326
2017-10-06T14:33:29.032Z,281